F/V Renaissance II — FMEW — position and weather

sailwx.info

Track history (hours):
 
Tides and Currents Weather Stations Pressure Air Temp Water Temp Dewpoint Dewpoint Depression Visibility Wind Speed Wind Dir Waves Ship Positions

F/V Renaissance II

Last reported at 2014-Oct-31 21:33 UTC. Time now 2014-Oct-31 21:40 UTC.
Position N 46°30' W 001°47'.

Length 18 m.

Type: Fishing. MMSI: 228216600.

Date/timePositionNaut miles runAvg speedWind from/ knotsBaromVisibWave heightAir tempDewpointWater temp
2014-Oct-31 21:33N 46°30' W 001°47'0 0.0
2014-Oct-31 20:33N 46°30' W 001°47'0 0.0
2014-Oct-31 19:33N 46°30' W 001°47'0 0.0
2014-Oct-31 18:33N 46°30' W 001°47'8 8.3
2014-Oct-31 17:33N 46°27' W 001°59'14 1.9
2014-Oct-31 10:11N 46°22' W 002°18'1 0.9
2014-Oct-31 09:29N 46°23' W 002°17'1 0.8
2014-Oct-31 08:25N 46°22' W 002°17'0 0.1
2014-Oct-31 07:29N 46°22' W 002°18'3 3.3
2014-Oct-31 06:33N 46°23' W 002°13'9 8.8
2014-Oct-31 05:33N 46°25' W 002°01'9 8.7
2014-Oct-31 04:33N 46°28' W 001°49'2 2.2
2014-Oct-31 03:33N 46°30' W 001°47'0 0.0
2014-Oct-31 02:33N 46°30' W 001°47'0 0.0
2014-Oct-31 01:33N 46°30' W 001°47'0 0.0
2014-Oct-31 00:33N 46°30' W 001°47'0 0.0
2014-Oct-30 23:33N 46°30' W 001°47'0 0.0
2014-Oct-30 22:33N 46°30' W 001°47'0 0.0
2014-Oct-30 21:33N 46°30' W 001°47'0 0.0
2014-Oct-30 20:33N 46°30' W 001°47'0 0.0
2014-Oct-30 19:33N 46°30' W 001°47'4 3.9
2014-Oct-30 18:33N 46°28' W 001°52'9 9.3
2014-Oct-30 17:33N 46°25' W 002°05'10 9.4
2014-Oct-30 16:28N 46°22' W 002°19'2 1.7
2014-Oct-30 15:16N 46°21' W 002°21'2 1.0
2014-Oct-30 13:25N 46°19' W 002°21'2 1.8
2014-Oct-30 12:14N 46°17' W 002°19'8 3.7
2014-Oct-30 10:12N 46°11' W 002°14'0 0.5
2014-Oct-30 09:31N 46°11' W 002°13'9 9.1
2014-Oct-30 08:33N 46°10' W 002°01'4 2.7
2014-Oct-30 07:14N 46°09' W 001°56'0 0.2
2014-Oct-30 06:23N 46°09' W 001°56'7 7.9
2014-Oct-30 05:33N 46°15' W 001°53'8 7.9
2014-Oct-30 04:33N 46°23' W 001°50'7 7.0
2014-Oct-30 03:33N 46°30' W 001°48'0 0.0
2014-Oct-29 07:26N 46°30' W 001°47'0 0.0
2014-Oct-28 21:26N 46°30' W 001°47'0 0.1
2014-Oct-28 20:34N 46°30' W 001°47'8 8.2
2014-Oct-28 19:34N 46°27' W 001°58'23 7.1
2014-Oct-28 16:18N 46°22' W 002°31'18 1.6
2014-Oct-28 05:33N 46°19' W 002°05'9 9.1
2014-Oct-28 04:33N 46°24' W 001°55'8 7.7
2014-Oct-28 03:34N 46°30' W 001°47'0 0.0
2014-Oct-28 02:34N 46°30' W 001°47'0 0.0
2014-Oct-28 01:34N 46°30' W 001°47'0 0.0
2014-Oct-28 00:33N 46°30' W 001°47'0 0.0
2014-Oct-27 23:34N 46°30' W 001°47'0 0.0
2014-Oct-27 22:34N 46°30' W 001°47'0 0.0
2014-Oct-27 21:34N 46°30' W 001°47'0 0.0
2014-Oct-27 20:33N 46°30' W 001°47'0 0.3
2014-Oct-27 19:33N 46°30' W 001°48'6 6.4
2014-Oct-27 18:33N 46°25' W 001°54'9 9.3
2014-Oct-27 17:33N 46°19' W 002°04'9 9.3
2014-Oct-27 16:34N 46°13' W 002°14'4 4.1
2014-Oct-27 15:33N 46°10' W 002°19'0 0.3
2014-Oct-27 14:20N 46°10' W 002°19'2 1.8
2014-Oct-27 13:28N 46°08' W 002°19'1 0.8
2014-Oct-27 12:18N 46°09' W 002°18'10 5.1
2014-Oct-27 10:18N 45°59' W 002°13'1 1.4
2014-Oct-27 09:33N 46°00' W 002°12'4 3.6
2014-Oct-27 08:30N 46°03' W 002°08'2 1.8
2014-Oct-27 07:16N 46°04' W 002°05'2 3.0
2014-Oct-27 06:33N 46°06' W 002°04'9 9.3
2014-Oct-27 05:34N 46°14' W 001°58'9 9.3
2014-Oct-27 04:33N 46°23' W 001°52'8 7.9
2014-Oct-27 03:33N 46°30' W 001°47'0 0.1
2014-Oct-27 02:34N 46°30' W 001°47'0 0.0
2014-Oct-27 01:33N 46°30' W 001°47'0 0.0
2014-Oct-27 00:34N 46°30' W 001°47'0 0.0
2014-Oct-26 23:33N 46°30' W 001°47'0 0.0
2014-Oct-26 22:33N 46°30' W 001°47'0 0.0
2014-Oct-26 21:34N 46°30' W 001°47'0 0.0
2014-Oct-26 20:33N 46°30' W 001°47'0 0.0
2014-Oct-26 19:34N 46°30' W 001°47'0 0.0
2014-Oct-26 18:33N 46°30' W 001°47'3 3.2
2014-Oct-26 17:34N 46°28' W 001°51'9 9.0
2014-Oct-26 16:32N 46°27' W 002°05'9 9.1
2014-Oct-26 15:33N 46°27' W 002°18'1 1.1
2014-Oct-26 14:14N 46°26' W 002°19'2 1.3
2014-Oct-26 12:30N 46°27' W 002°22'1 1.5
2014-Oct-26 11:30N 46°26' W 002°21'0 0.3
2014-Oct-26 10:24N 46°26' W 002°21'1 1.0
2014-Oct-26 09:33N 46°26' W 002°20'0 0.3
2014-Oct-26 08:33N 46°25' W 002°20'0 0.3
2014-Oct-26 07:31N 46°25' W 002°19'1 1.2
2014-Oct-26 06:32N 46°26' W 002°18'9 9.6
2014-Oct-26 05:33N 46°27' W 002°04'9 9.5
2014-Oct-26 04:34N 46°28' W 001°50'3 2.6
2014-Oct-26 03:33N 46°30' W 001°47'0 0.2
2014-Oct-26 02:34N 46°30' W 001°47'0 0.0
2014-Oct-26 01:33N 46°30' W 001°47'0 0.0
2014-Oct-26 00:33N 46°30' W 001°47'0 0.0
2014-Oct-25 23:33N 46°30' W 001°47'0 0.0
2014-Oct-25 22:33N 46°30' W 001°47'0 0.0
2014-Oct-25 21:33N 46°30' W 001°47'0 0.0
2014-Oct-25 20:34N 46°30' W 001°47'0 0.0
2014-Oct-25 19:33N 46°30' W 001°47'2 1.7
2014-Oct-25 18:34N 46°29' W 001°49'9 8.9
2014-Oct-25 17:33N 46°26' W 002°02'9 1.5
2014-Oct-25 11:21N 46°23' W 002°14'4 0.7
2014-Oct-25 05:34N 46°24' W 002°08'9 8.6
2014-Oct-25 04:34N 46°27' W 001°56'7 0.2
2014-Oct-23 17:33N 46°30' W 001°47'1 0.8
2014-Oct-23 16:34N 46°29' W 001°47'9 8.7
2014-Oct-23 15:34N 46°32' W 001°59'11 0.9
2014-Oct-23 03:32N 46°36' W 002°15'7 7.4
2014-Oct-23 02:34N 46°33' W 002°05'7 7.4
2014-Oct-23 01:33N 46°30' W 001°55'5 5.4
2014-Oct-23 00:34N 46°30' W 001°47'0 0.2
2014-Oct-22 23:34N 46°30' W 001°47'3 3.1
2014-Oct-22 22:33N 46°29' W 001°52'8 7.6
2014-Oct-22 21:33N 46°31' W 002°02'7 7.2
2014-Oct-22 20:33N 46°33' W 002°12'3 0.2
2014-Oct-22 05:13N 46°36' W 002°14'6 8.8
2014-Oct-22 04:33N 46°33' W 002°06'9 8.7
2014-Oct-22 03:33N 46°31' W 001°54'5 4.9
2014-Oct-22 02:33N 46°30' W 001°47'0 0.0
2014-Oct-22 01:33N 46°30' W 001°47'0 0.0
2014-Oct-22 00:33N 46°30' W 001°47'0 0.0
2014-Oct-21 23:34N 46°30' W 001°47'0 0.0
2014-Oct-21 22:34N 46°30' W 001°47'0 0.0
2014-Oct-21 21:34N 46°30' W 001°47'  
Track history (hours):
 
Tides and Currents Weather Stations Pressure Air Temp Water Temp Dewpoint Dewpoint Depression Visibility Wind Speed Wind Dir Waves Ship Positions

F/V Renaissance II

Last reported at 2014-Oct-31 21:33 UTC. Time now 2014-Oct-31 21:40 UTC.
Position N 46°30' W 001°47'.

Length 18 m.

Type: Fishing. MMSI: 228216600.

Date/timePositionNaut miles runAvg speedWind from/ knotsBaromVisibWave heightAir tempDewpointWater temp
2014-Oct-31 21:33N 46°30' W 001°47'0 0.0
2014-Oct-31 20:33N 46°30' W 001°47'0 0.0
2014-Oct-31 19:33N 46°30' W 001°47'0 0.0
2014-Oct-31 18:33N 46°30' W 001°47'8 8.3
2014-Oct-31 17:33N 46°27' W 001°59'14 1.9
2014-Oct-31 10:11N 46°22' W 002°18'1 0.9
2014-Oct-31 09:29N 46°23' W 002°17'1 0.8
2014-Oct-31 08:25N 46°22' W 002°17'0 0.1
2014-Oct-31 07:29N 46°22' W 002°18'3 3.3
2014-Oct-31 06:33N 46°23' W 002°13'9 8.8
2014-Oct-31 05:33N 46°25' W 002°01'9 8.7
2014-Oct-31 04:33N 46°28' W 001°49'2 2.2
2014-Oct-31 03:33N 46°30' W 001°47'0 0.0
2014-Oct-31 02:33N 46°30' W 001°47'0 0.0
2014-Oct-31 01:33N 46°30' W 001°47'0 0.0
2014-Oct-31 00:33N 46°30' W 001°47'0 0.0
2014-Oct-30 23:33N 46°30' W 001°47'0 0.0
2014-Oct-30 22:33N 46°30' W 001°47'0 0.0
2014-Oct-30 21:33N 46°30' W 001°47'0 0.0
2014-Oct-30 20:33N 46°30' W 001°47'0 0.0
2014-Oct-30 19:33N 46°30' W 001°47'4 3.9
2014-Oct-30 18:33N 46°28' W 001°52'9 9.3
2014-Oct-30 17:33N 46°25' W 002°05'10 9.4
2014-Oct-30 16:28N 46°22' W 002°19'2 1.7
2014-Oct-30 15:16N 46°21' W 002°21'2 1.0
2014-Oct-30 13:25N 46°19' W 002°21'2 1.8
2014-Oct-30 12:14N 46°17' W 002°19'8 3.7
2014-Oct-30 10:12N 46°11' W 002°14'0 0.5
2014-Oct-30 09:31N 46°11' W 002°13'9 9.1
2014-Oct-30 08:33N 46°10' W 002°01'4 2.7
2014-Oct-30 07:14N 46°09' W 001°56'0 0.2
2014-Oct-30 06:23N 46°09' W 001°56'7 7.9
2014-Oct-30 05:33N 46°15' W 001°53'8 7.9
2014-Oct-30 04:33N 46°23' W 001°50'7 7.0
2014-Oct-30 03:33N 46°30' W 001°48'0 0.0
2014-Oct-29 07:26N 46°30' W 001°47'0 0.0
2014-Oct-28 21:26N 46°30' W 001°47'0 0.1
2014-Oct-28 20:34N 46°30' W 001°47'8 8.2
2014-Oct-28 19:34N 46°27' W 001°58'23 7.1
2014-Oct-28 16:18N 46°22' W 002°31'18 1.6
2014-Oct-28 05:33N 46°19' W 002°05'9 9.1
2014-Oct-28 04:33N 46°24' W 001°55'8 7.7
2014-Oct-28 03:34N 46°30' W 001°47'0 0.0
2014-Oct-28 02:34N 46°30' W 001°47'0 0.0
2014-Oct-28 01:34N 46°30' W 001°47'0 0.0
2014-Oct-28 00:33N 46°30' W 001°47'0 0.0
2014-Oct-27 23:34N 46°30' W 001°47'0 0.0
2014-Oct-27 22:34N 46°30' W 001°47'0 0.0
2014-Oct-27 21:34N 46°30' W 001°47'0 0.0
2014-Oct-27 20:33N 46°30' W 001°47'0 0.3
2014-Oct-27 19:33N 46°30' W 001°48'6 6.4
2014-Oct-27 18:33N 46°25' W 001°54'9 9.3
2014-Oct-27 17:33N 46°19' W 002°04'9 9.3
2014-Oct-27 16:34N 46°13' W 002°14'4 4.1
2014-Oct-27 15:33N 46°10' W 002°19'0 0.3
2014-Oct-27 14:20N 46°10' W 002°19'2 1.8
2014-Oct-27 13:28N 46°08' W 002°19'1 0.8
2014-Oct-27 12:18N 46°09' W 002°18'10 5.1
2014-Oct-27 10:18N 45°59' W 002°13'1 1.4
2014-Oct-27 09:33N 46°00' W 002°12'4 3.6
2014-Oct-27 08:30N 46°03' W 002°08'2 1.8
2014-Oct-27 07:16N 46°04' W 002°05'2 3.0
2014-Oct-27 06:33N 46°06' W 002°04'9 9.3
2014-Oct-27 05:34N 46°14' W 001°58'9 9.3
2014-Oct-27 04:33N 46°23' W 001°52'8 7.9
2014-Oct-27 03:33N 46°30' W 001°47'0 0.1
2014-Oct-27 02:34N 46°30' W 001°47'0 0.0
2014-Oct-27 01:33N 46°30' W 001°47'0 0.0
2014-Oct-27 00:34N 46°30' W 001°47'0 0.0
2014-Oct-26 23:33N 46°30' W 001°47'0 0.0
2014-Oct-26 22:33N 46°30' W 001°47'0 0.0
2014-Oct-26 21:34N 46°30' W 001°47'0 0.0
2014-Oct-26 20:33N 46°30' W 001°47'0 0.0
2014-Oct-26 19:34N 46°30' W 001°47'0 0.0
2014-Oct-26 18:33N 46°30' W 001°47'3 3.2
2014-Oct-26 17:34N 46°28' W 001°51'9 9.0
2014-Oct-26 16:32N 46°27' W 002°05'9 9.1
2014-Oct-26 15:33N 46°27' W 002°18'1 1.1
2014-Oct-26 14:14N 46°26' W 002°19'2 1.3
2014-Oct-26 12:30N 46°27' W 002°22'1 1.5
2014-Oct-26 11:30N 46°26' W 002°21'0 0.3
2014-Oct-26 10:24N 46°26' W 002°21'1 1.0
2014-Oct-26 09:33N 46°26' W 002°20'0 0.3
2014-Oct-26 08:33N 46°25' W 002°20'0 0.3
2014-Oct-26 07:31N 46°25' W 002°19'1 1.2
2014-Oct-26 06:32N 46°26' W 002°18'9 9.6
2014-Oct-26 05:33N 46°27' W 002°04'9 9.5
2014-Oct-26 04:34N 46°28' W 001°50'3 2.6
2014-Oct-26 03:33N 46°30' W 001°47'0 0.2
2014-Oct-26 02:34N 46°30' W 001°47'0 0.0
2014-Oct-26 01:33N 46°30' W 001°47'0 0.0
2014-Oct-26 00:33N 46°30' W 001°47'0 0.0
2014-Oct-25 23:33N 46°30' W 001°47'0 0.0
2014-Oct-25 22:33N 46°30' W 001°47'0 0.0
2014-Oct-25 21:33N 46°30' W 001°47'0 0.0
2014-Oct-25 20:34N 46°30' W 001°47'0 0.0
2014-Oct-25 19:33N 46°30' W 001°47'2 1.7
2014-Oct-25 18:34N 46°29' W 001°49'9 8.9
2014-Oct-25 17:33N 46°26' W 002°02'9 1.5
2014-Oct-25 11:21N 46°23' W 002°14'4 0.7
2014-Oct-25 05:34N 46°24' W 002°08'9 8.6
2014-Oct-25 04:34N 46°27' W 001°56'7 0.2
2014-Oct-23 17:33N 46°30' W 001°47'1 0.8
2014-Oct-23 16:34N 46°29' W 001°47'9 8.7
2014-Oct-23 15:34N 46°32' W 001°59'11 0.9
2014-Oct-23 03:32N 46°36' W 002°15'7 7.4
2014-Oct-23 02:34N 46°33' W 002°05'7 7.4
2014-Oct-23 01:33N 46°30' W 001°55'5 5.4
2014-Oct-23 00:34N 46°30' W 001°47'0 0.2
2014-Oct-22 23:34N 46°30' W 001°47'3 3.1
2014-Oct-22 22:33N 46°29' W 001°52'8 7.6
2014-Oct-22 21:33N 46°31' W 002°02'7 7.2
2014-Oct-22 20:33N 46°33' W 002°12'3 0.2
2014-Oct-22 05:13N 46°36' W 002°14'6 8.8
2014-Oct-22 04:33N 46°33' W 002°06'9 8.7
2014-Oct-22 03:33N 46°31' W 001°54'5 4.9
2014-Oct-22 02:33N 46°30' W 001°47'0 0.0
2014-Oct-22 01:33N 46°30' W 001°47'0 0.0
2014-Oct-22 00:33N 46°30' W 001°47'0 0.0
2014-Oct-21 23:34N 46°30' W 001°47'0 0.0
2014-Oct-21 22:34N 46°30' W 001°47'0 0.0
2014-Oct-21 21:34N 46°30' W 001°47'  

Dump ship's entire track history